Time;durP1;ratioP1;P1;durP2;ratioP2;P2;SDS_P1;SDS_P2;PMS_P1;PMS_P2;Temp;Humidity;BMP_temperature;BMP_pressure;BME280_temperature;BME280_humidity;BME280_pressure;Samples;Min_cycle;Max_cycle;Signal;HPM_P1;HPM_P2
2021/12/13 00:00:17;;;;;;;1036.43;972.40;;;;;;;4.71;74.64;101827.16;687197;28;138359;-74
2021/12/13 00:00:46;;;;;;;1040.78;975.83;;;;;;;4.72;74.70;101833.34;687422;28;135662;-74
2021/12/13 00:01:14;;;;;;;1087.22;999.90;;;;;;;4.72;75.08;101825.31;685734;28;136504;-74
2021/12/13 00:01:38;;;;;;;1041.63;976.10;;;;;;;4.73;75.02;101829.72;684423;28;138589;-74
2021/12/13 00:02:03;;;;;;;1094.95;999.90;;;;;;;4.73;74.99;101832.41;690253;28;55467;-74
2021/12/13 00:02:33;;;;;;;1060.05;993.53;;;;;;;4.74;74.63;101834.13;687819;28;113085;-74
2021/12/13 00:03:04;;;;;;;1105.88;999.90;;;;;;;4.73;74.59;101829.72;682588;28;137912;-74
2021/12/13 00:03:28;;;;;;;1089.07;999.90;;;;;;;4.73;74.83;101832.41;683933;28;136945;-74
2021/12/13 00:03:55;;;;;;;1067.88;999.90;;;;;;;4.71;74.69;101832.50;684654;28;89949;-74
2021/12/13 00:04:19;;;;;;;1090.60;999.90;;;;;;;4.71;74.73;101834.34;683176;28;138057;-74
2021/12/13 00:04:44;;;;;;;1067.15;999.15;;;;;;;4.66;74.48;101830.16;682636;28;90596;-74
2021/12/13 00:05:09;;;;;;;1087.03;999.90;;;;;;;4.68;74.42;101838.09;685803;28;115004;-74
2021/12/13 00:05:35;;;;;;;1091.82;999.90;;;;;;;4.67;74.58;101833.69;685208;28;115561;-74
2021/12/13 00:05:59;;;;;;;1082.75;999.90;;;;;;;4.65;74.47;101832.97;683809;28;137956;-74
2021/12/13 00:06:26;;;;;;;1047.22;981.45;;;;;;;4.65;74.34;101835.63;685632;28;92252;-74
2021/12/13 00:06:50;;;;;;;1093.40;999.90;;;;;;;4.64;74.07;101834.78;684739;28;138045;-74
2021/12/13 00:07:16;;;;;;;1049.07;985.67;;;;;;;4.63;74.35;101827.72;683375;28;93138;-74
2021/12/13 00:07:39;;;;;;;1037.68;975.15;;;;;;;4.63;74.57;101830.38;681307;28;137978;-74
2021/12/13 00:08:04;;;;;;;1082.15;999.90;;;;;;;4.63;74.22;101835.75;684105;28;92264;-74
2021/12/13 00:08:29;;;;;;;1039.30;976.55;;;;;;;4.63;74.32;101826.88;683081;28;114862;-74
2021/12/13 00:09:00;;;;;;;1069.57;999.90;;;;;;;4.62;74.22;101831.34;682744;28;136429;-75
2021/12/13 00:09:24;;;;;;;1069.38;999.90;;;;;;;4.61;74.11;101828.81;686307;28;121340;-75
2021/12/13 00:09:55;;;;;;;1074.53;999.90;;;;;;;4.64;73.99;101826.75;687230;28;92269;-75
2021/12/13 00:10:24;;;;;;;1053.30;989.88;;;;;;;4.63;74.27;101822.38;686742;28;96824;-75
2021/12/13 00:10:54;;;;;;;1044.30;981.40;;;;;;;4.60;74.25;101816.38;687818;28;62162;-75
2021/12/13 00:11:19;;;;;;;1064.00;999.15;;;;;;;4.62;74.05;101815.28;687154;28;75032;-75
2021/12/13 00:11:44;;;;;;;1049.22;985.63;;;;;;;4.67;74.21;101822.97;685121;28;138032;-74
2021/12/13 00:12:09;;;;;;;1070.05;999.90;;;;;;;4.68;73.95;101830.06;686797;28;91866;-75
2021/12/13 00:12:36;;;;;;;1053.88;990.28;;;;;;;4.58;74.21;101811.16;682620;28;115136;-75
2021/12/13 00:13:02;;;;;;;1089.70;999.90;;;;;;;4.59;74.81;101818.22;683973;28;157579;-76
2021/12/13 00:13:25;;;;;;;1061.68;997.20;;;;;;;4.69;74.51;101829.09;687510;28;77143;-74
2021/12/13 00:13:50;;;;;;;1078.22;999.90;;;;;;;4.69;74.65;101835.31;687319;28;69401;-74
2021/12/13 00:14:18;;;;;;;1060.22;996.47;;;;;;;4.68;74.46;101838.94;686122;28;115256;-74
2021/12/13 00:14:48;;;;;;;1065.22;999.85;;;;;;;4.68;74.34;101830.91;686477;28;115138;-74
2021/12/13 00:15:13;;;;;;;1035.85;973.35;;;;;;;4.66;74.50;101830.16;685147;28;137509;-74
2021/12/13 00:15:41;;;;;;;1087.72;999.90;;;;;;;4.70;74.69;101836.16;688917;28;115455;-74
2021/12/13 00:16:05;;;;;;;1056.57;992.42;;;;;;;4.68;74.49;101833.59;684412;28;138230;-74
2021/12/13 00:16:29;;;;;;;1069.25;999.90;;;;;;;4.68;74.51;101824.72;686235;28;92147;-74
2021/12/13 00:16:58;;;;;;;1087.95;999.90;;;;;;;4.68;74.62;101828.22;685845;28;90851;-74
2021/12/13 00:17:24;;;;;;;1065.18;999.75;;;;;;;4.70;74.51;101830.78;683439;28;160466;-75
2021/12/13 00:17:51;;;;;;;1080.22;999.90;;;;;;;4.70;74.30;101836.16;682454;28;136105;-74
2021/12/13 00:18:17;;;;;;;1070.97;999.90;;;;;;;4.70;74.94;101828.13;685742;28;135699;-74
2021/12/13 00:18:40;;;;;;;1062.32;997.88;;;;;;;4.69;74.71;101829.94;685460;28;138127;-75
2021/12/13 00:19:06;;;;;;;1061.55;996.72;;;;;;;4.74;74.28;101832.28;687512;28;69239;-74
2021/12/13 00:19:32;;;;;;;1081.50;999.90;;;;;;;4.75;74.26;101834.00;684244;28;135284;-74
2021/12/13 00:19:59;;;;;;;1063.80;999.25;;;;;;;4.75;74.16;101831.34;683448;28;160883;-75
2021/12/13 00:20:28;;;;;;;1079.93;999.90;;;;;;;4.77;74.00;101824.03;684587;28;137765;-74
2021/12/13 00:20:57;;;;;;;1057.53;993.88;;;;;;;4.79;73.83;101835.47;683903;28;136173;-74
2021/12/13 00:21:23;;;;;;;1027.32;965.78;;;;;;;4.78;74.13;101824.88;684529;28;137881;-74
2021/12/13 00:21:47;;;;;;;1049.82;987.22;;;;;;;4.79;74.33;101834.63;681118;28;138167;-74
2021/12/13 00:22:12;;;;;;;1031.10;970.03;;;;;;;4.79;74.42;101837.31;683312;28;90688;-74
2021/12/13 00:22:36;;;;;;;991.15;932.83;;;;;;;4.78;74.17;101838.25;682798;28;113062;-74
2021/12/13 00:22:59;;;;;;;1030.80;969.53;;;;;;;4.79;74.28;101824.78;685649;28;110797;-74
2021/12/13 00:23:26;;;;;;;1015.10;954.88;;;;;;;4.78;74.27;101828.44;687729;28;69527;-74
2021/12/13 00:23:51;;;;;;;1044.50;982.00;;;;;;;4.80;74.76;101825.66;685769;28;138283;-74
2021/12/13 00:24:20;;;;;;;1061.07;997.45;;;;;;;4.83;74.17;101833.44;686531;28;115031;-74
2021/12/13 00:24:44;;;;;;;1048.45;985.97;;;;;;;4.82;74.52;101839.75;685771;28;137521;-74
2021/12/13 00:25:07;;;;;;;1038.85;977.03;;;;;;;4.76;74.22;101819.63;687234;28;92340;-74
2021/12/13 00:25:31;;;;;;;1015.92;955.78;;;;;;;4.82;74.15;101835.25;688252;28;50449;-74
2021/12/13 00:25:56;;;;;;;944.30;888.80;;;;;;;4.81;74.45;101830.88;684194;28;92556;-74
2021/12/13 00:26:26;;;;;;;946.60;890.67;;;;;;;4.78;74.22;101835.59;681407;28;135527;-74
2021/12/13 00:26:51;;;;;;;941.83;886.42;;;;;;;4.80;74.29;101831.00;682913;28;138156;-74
2021/12/13 00:27:16;;;;;;;891.73;839.73;;;;;;;4.84;74.24;101833.34;685700;28;106290;-74
2021/12/13 00:27:46;;;;;;;983.92;925.58;;;;;;;4.85;74.12;101844.88;685660;28;57631;-75
2021/12/13 00:28:13;;;;;;;913.35;859.78;;;;;;;4.83;73.95;101828.09;684913;28;113257;-74
2021/12/13 00:28:40;;;;;;;833.75;785.30;;;;;;;4.84;74.32;101832.47;678862;28;134910;-74
2021/12/13 00:29:08;;;;;;;960.60;904.33;;;;;;;4.86;74.43;101836.75;679034;28;136378;-74
2021/12/13 00:29:37;;;;;;;1051.05;988.35;;;;;;;4.85;74.29;101824.31;677957;28;159183;-74
2021/12/13 00:30:04;;;;;;;857.08;807.38;;;;;;;4.82;74.61;101829.91;679462;28;152765;-74
2021/12/13 00:30:33;;;;;;;945.85;890.38;;;;;;;4.85;74.34;101828.81;683943;28;137824;-74
2021/12/13 00:31:12;;;;;;;1027.20;966.42;;;;;;;4.87;74.40;101840.28;690663;28;60263;-74
2021/12/13 00:31:40;;;;;;;1000.35;941.17;;;;;;;4.87;73.88;101833.13;685665;28;138025;-74
2021/12/13 00:32:05;;;;;;;980.70;923.00;;;;;;;4.89;74.13;101833.00;685602;28;137039;-73
2021/12/13 00:32:29;;;;;;;1013.08;953.08;;;;;;;4.90;74.16;101825.81;686462;28;115675;-74
2021/12/13 00:32:56;;;;;;;1008.28;948.70;;;;;;;4.91;74.01;101836.41;686349;28;92263;-74
2021/12/13 00:33:26;;;;;;;1000.53;941.65;;;;;;;4.91;74.00;101840.91;684830;28;160504;-74
2021/12/13 00:33:58;;;;;;;678.17;641.08;;;;;;;4.90;74.27;101839.19;685751;28;137735;-74
2021/12/13 00:34:31;;;;;;;632.83;598.75;;;;;;;4.88;73.94;101834.81;685512;28;137482;-74
2021/12/13 00:34:56;;;;;;;628.40;594.45;;;;;;;4.91;74.17;101841.75;685306;28;137448;-74
2021/12/13 00:35:20;;;;;;;653.78;618.38;;;;;;;4.90;74.21;101834.69;686270;28;113321;-74
2021/12/13 00:35:46;;;;;;;666.65;630.22;;;;;;;4.90;74.15;101832.00;687202;28;92235;-74
2021/12/13 00:36:10;;;;;;;652.10;617.70;;;;;;;4.89;74.27;101833.00;685145;28;137807;-74
2021/12/13 00:36:34;;;;;;;660.92;625.28;;;;;;;4.91;74.58;101838.25;686943;28;92136;-74
2021/12/13 00:37:01;;;;;;;711.58;671.85;;;;;;;4.90;74.42;101837.38;689797;28;90436;-74
2021/12/13 00:37:28;;;;;;;814.58;768.10;;;;;;;4.93;74.32;101837.13;688025;28;136372;-74
2021/12/13 00:37:52;;;;;;;845.63;796.20;;;;;;;4.96;73.89;101838.75;686842;28;137936;-74
2021/12/13 00:38:14;;;;;;;746.05;704.20;;;;;;;4.96;74.17;101838.75;689938;28;91826;-74
2021/12/13 00:38:42;;;;;;;748.80;706.00;;;;;;;4.94;73.96;101840.69;691499;28;47362;-74
2021/12/13 00:39:09;;;;;;;771.55;727.22;;;;;;;4.96;73.94;101844.09;688403;28;137197;-74
2021/12/13 00:39:33;;;;;;;779.13;733.75;;;;;;;4.95;74.19;101840.56;688068;28;137808;-74
2021/12/13 00:39:58;;;;;;;822.88;775.17;;;;;;;4.96;74.27;101839.59;685440;28;89268;-72
2021/12/13 00:40:22;;;;;;;823.78;776.13;;;;;;;4.95;74.06;101839.69;683505;28;113456;-72
2021/12/13 00:40:47;;;;;;;824.45;776.15;;;;;;;4.96;73.65;101834.25;685823;28;79097;-72
2021/12/13 00:41:11;;;;;;;840.25;790.92;;;;;;;4.98;73.89;101839.47;685162;28;115061;-72
2021/12/13 00:41:36;;;;;;;933.60;879.08;;;;;;;4.95;73.95;101840.56;684034;28;87170;-72
2021/12/13 00:41:58;;;;;;;936.63;881.17;;;;;;;4.92;74.27;101846.16;683424;28;92977;-72
2021/12/13 00:42:23;;;;;;;836.05;786.47;;;;;;;4.91;74.21;101838.25;683498;28;68293;-72
2021/12/13 00:42:49;;;;;;;938.55;882.63;;;;;;;4.95;74.52;101850.41;679236;28;102457;-72
2021/12/13 00:43:12;;;;;;;980.70;922.28;;;;;;;4.87;74.29;101829.56;677473;29;121620;-72
2021/12/13 00:43:36;;;;;;;913.72;859.55;;;;;;;4.96;74.23;101842.28;676773;29;68624;-72
2021/12/13 00:44:02;;;;;;;979.92;922.10;;;;;;;4.89;74.54;101833.00;674887;29;92263;-72
2021/12/13 00:44:27;;;;;;;915.72;862.08;;;;;;;4.95;74.36;101837.88;673551;29;106539;-72
2021/12/13 00:44:51;;;;;;;1013.72;953.72;;;;;;;4.95;74.62;101848.59;676405;29;115016;-72
2021/12/13 00:45:14;;;;;;;1016.22;955.67;;;;;;;4.95;74.23;101845.91;676698;29;90353;-72
2021/12/13 00:45:38;;;;;;;972.13;914.40;;;;;;;4.93;74.20;101841.66;682358;28;67487;-72
2021/12/13 00:46:05;;;;;;;975.22;917.33;;;;;;;4.91;74.27;101835.56;685216;28;69420;-72
2021/12/13 00:46:28;;;;;;;981.05;922.97;;;;;;;4.93;74.32;101842.50;685420;28;132738;-72
2021/12/13 00:46:52;;;;;;;1002.88;943.33;;;;;;;4.92;74.55;101840.81;685294;28;69212;-72
2021/12/13 00:47:18;;;;;;;931.72;877.35;;;;;;;4.94;74.62;101852.25;686931;28;92270;-72
2021/12/13 00:47:43;;;;;;;945.70;889.92;;;;;;;4.96;74.11;101850.31;684486;28;138232;-72
2021/12/13 00:48:06;;;;;;;949.92;893.92;;;;;;;4.95;74.33;101848.59;686330;28;121132;-72
2021/12/13 00:48:29;;;;;;;971.17;914.15;;;;;;;4.96;74.40;101846.78;685601;28;67493;-72
2021/12/13 00:48:52;;;;;;;981.03;923.20;;;;;;;4.95;74.47;101853.94;685328;28;69459;-72
2021/12/13 00:49:16;;;;;;;1017.47;957.20;;;;;;;4.89;74.31;101843.72;682568;28;68203;-72
2021/12/13 00:49:40;;;;;;;947.38;891.40;;;;;;;4.98;74.05;101851.03;682706;28;68415;-72
2021/12/13 00:50:06;;;;;;;843.67;794.38;;;;;;;4.98;73.74;101848.34;679075;28;92336;-72
2021/12/13 00:50:33;;;;;;;861.83;811.47;;;;;;;4.98;74.20;101855.53;680186;28;137924;-72
2021/12/13 00:50:59;;;;;;;861.95;811.90;;;;;;;4.93;74.56;101842.50;680407;28;138334;-72
2021/12/13 00:51:25;;;;;;;860.97;810.78;;;;;;;4.94;74.55;101846.91;683183;28;137889;-72
2021/12/13 00:51:49;;;;;;;845.88;796.13;;;;;;;4.99;74.29;101857.25;683126;28;138016;-72
2021/12/13 00:52:14;;;;;;;841.60;792.30;;;;;;;4.98;74.33;101850.19;684049;28;92222;-72
2021/12/13 00:52:37;;;;;;;898.20;845.83;;;;;;;4.99;74.50;101850.06;681133;28;114860;-75
2021/12/13 00:53:01;;;;;;;924.70;870.60;;;;;;;4.99;74.35;101851.91;685212;28;49348;-74
2021/12/13 00:53:22;;;;;;;914.15;860.28;;;;;;;4.98;74.13;101853.72;686072;28;46368;-74
2021/12/13 00:53:50;;;;;;;881.65;829.67;;;;;;;4.99;74.47;101858.09;682923;28;39543;-74
2021/12/13 00:54:18;;;;;;;915.88;861.75;;;;;;;4.88;74.45;101840.16;682844;28;115134;-74
2021/12/13 00:54:47;;;;;;;897.80;845.38;;;;;;;4.96;74.54;101852.13;688193;28;59547;-74
2021/12/13 00:55:13;;;;;;;930.60;875.42;;;;;;;5.01;74.31;101858.00;685594;28;133215;-74
2021/12/13 00:55:37;;;;;;;944.92;888.92;;;;;;;5.02;73.93;101862.41;685999;28;137410;-74
2021/12/13 00:55:59;;;;;;;987.55;928.85;;;;;;;4.95;74.29;101850.41;690056;28;71054;-74
2021/12/13 00:57:11;;;;;;;896.83;844.15;;;;;;;5.05;74.08;101857.66;687482;28;59958;-74
2021/12/13 00:57:42;;;;;;;1092.78;999.90;;;;;;;5.07;73.70;101859.38;674355;29;137700;-74
2021/12/13 00:58:09;;;;;;;1043.78;979.72;;;;;;;5.07;73.85;101862.06;673038;29;157868;-74
2021/12/13 00:58:31;;;;;;;1040.47;977.60;;;;;;;5.08;73.86;101855.72;677300;29;137888;-74
2021/12/13 00:58:53;;;;;;;1071.95;999.90;;;;;;;5.08;73.91;101861.06;680137;28;45384;-74
2021/12/13 00:59:24;;;;;;;1085.68;999.90;;;;;;;5.10;73.54;101860.00;680988;29;22256;-74
2021/12/13 00:59:48;;;;;;;1075.90;999.90;;;;;;;5.09;73.86;101860.94;674536;29;137962;-74
2021/12/13 01:00:20;;;;;;;1053.82;990.35;;;;;;;5.11;73.58;101863.53;677959;28;115084;-74
2021/12/13 01:00:47;;;;;;;1059.05;993.92;;;;;;;5.11;73.57;101861.72;685451;28;136096;-74
2021/12/13 01:01:08;;;;;;;1086.07;999.90;;;;;;;5.10;74.00;101860.00;685510;28;138191;-74
2021/12/13 01:01:29;;;;;;;1044.53;979.80;;;;;;;5.10;74.17;101859.16;688434;28;46332;-74
2021/12/13 01:01:54;;;;;;;1086.95;999.90;;;;;;;5.09;73.87;101865.47;689790;28;22353;-74
2021/12/13 01:02:19;;;;;;;1107.75;999.90;;;;;;;5.09;74.26;101862.78;686461;28;113426;-74
2021/12/13 01:02:43;;;;;;;1050.68;985.00;;;;;;;5.10;74.17;101864.50;685400;28;113560;-74
2021/12/13 01:03:08;;;;;;;1097.22;999.90;;;;;;;5.10;73.77;101859.16;687227;28;90865;-74
2021/12/13 01:03:34;;;;;;;1083.95;999.90;;;;;;;5.11;73.92;101867.06;688298;28;114961;-74
2021/12/13 01:03:57;;;;;;;1078.25;999.90;;;;;;;5.11;73.93;101867.06;687905;28;138234;-74
2021/12/13 01:04:18;;;;;;;1079.88;999.90;;;;;;;5.10;74.00;101865.34;690259;28;69443;-74
2021/12/13 01:04:57;;;;;;;1057.95;991.45;;;;;;;5.10;73.67;101862.69;692224;28;21282;-74
2021/12/13 01:05:28;;;;;;;1094.63;999.90;;;;;;;5.12;73.63;101868.75;687661;28;137452;-74
2021/12/13 01:06:07;;;;;;;1081.88;999.90;;;;;;;5.13;73.69;101861.59;687460;28;136014;-74
2021/12/13 01:06:59;;;;;;;1093.10;999.90;;;;;;;5.11;73.83;101861.72;687938;28;137518;-74
2021/12/13 01:07:57;;;;;;;1079.43;999.90;;;;;;;5.10;73.98;101868.03;687858;28;137699;-74
2021/12/13 01:08:43;;;;;;;1006.72;945.70;;;;;;;5.10;74.25;101877.91;685346;28;81725;-74
2021/12/13 01:10:15;;;;;;;1070.30;999.90;;;;;;;5.07;74.39;101865.56;685256;28;137578;-74
2021/12/13 01:11:11;;;;;;;993.00;934.47;;;;;;;5.04;74.23;101877.34;685720;28;137286;-74
2021/12/13 01:11:37;;;;;;;993.65;935.10;;;;;;;5.06;74.42;101879.94;687494;28;137601;-74
2021/12/13 01:12:01;;;;;;;1042.15;980.33;;;;;;;5.06;74.20;101871.88;688096;28;138541;-74
2021/12/13 01:12:24;;;;;;;1025.28;964.53;;;;;;;5.07;74.16;101880.81;686938;28;92320;-74
2021/12/13 01:12:47;;;;;;;950.33;894.38;;;;;;;5.07;74.42;101883.47;686804;28;69261;-74
2021/12/13 01:13:13;;;;;;;950.42;894.65;;;;;;;5.04;74.35;101880.03;687066;28;92122;-74
2021/12/13 01:13:42;;;;;;;927.85;873.55;;;;;;;5.05;74.53;101883.59;682848;28;138098;-74
2021/12/13 01:14:18;;;;;;;927.92;873.33;;;;;;;5.02;74.40;101878.47;682806;28;137991;-74
2021/12/13 01:14:54;;;;;;;926.67;872.22;;;;;;;5.08;74.27;101885.16;685739;28;137549;-74
2021/12/13 01:15:28;;;;;;;912.60;859.17;;;;;;;5.10;73.87;101885.94;685479;28;135812;-74
2021/12/13 01:15:56;;;;;;;943.25;887.55;;;;;;;5.09;74.46;101885.06;684978;28;160613;-74
2021/12/13 01:16:39;;;;;;;983.83;925.95;;;;;;;5.09;74.33;101887.72;684998;28;137305;-74
2021/12/13 01:17:08;;;;;;;992.95;934.35;;;;;;;5.06;74.42;101890.63;684861;28;137180;-74
2021/12/13 01:17:45;;;;;;;986.08;928.00;;;;;;;5.09;74.30;101892.25;681855;28;135116;-74
2021/12/13 01:18:24;;;;;;;939.20;883.92;;;;;;;5.11;74.13;101888.50;680672;28;157429;-74
2021/12/13 01:19:13;;;;;;;945.30;889.97;;;;;;;5.11;74.45;101892.97;683072;28;160657;-74
2021/12/13 01:19:50;;;;;;;966.00;909.40;;;;;;;5.01;74.03;101877.59;685481;28;137375;-74
2021/12/13 01:20:23;;;;;;;931.13;876.15;;;;;;;5.08;74.33;101901.22;687504;28;137689;-74
2021/12/13 01:20:58;;;;;;;903.20;850.60;;;;;;;5.12;74.24;101894.69;687881;28;137416;-75
2021/12/13 01:21:31;;;;;;;954.35;898.45;;;;;;;5.14;74.18;101892.75;688023;28;138548;-73
2021/12/13 01:21:59;;;;;;;1003.38;944.00;;;;;;;5.13;73.65;101893.75;688146;28;135845;-74
2021/12/13 01:23:17;;;;;;;1026.72;965.88;;;;;;;5.19;73.24;101887.94;679616;28;156444;-74
2021/12/13 01:23:44;;;;;;;1009.22;949.65;;;;;;;5.17;73.55;101904.13;684749;28;148185;-74
2021/12/13 01:24:20;;;;;;;1005.20;945.95;;;;;;;5.17;73.58;101896.09;685261;28;137734;-74
2021/12/13 01:25:14;;;;;;;1011.45;951.72;;;;;;;5.19;73.44;101899.50;681819;28;158526;-74
2021/12/13 01:25:44;;;;;;;977.33;919.75;;;;;;;5.19;73.93;101896.81;685843;28;61028;-74
2021/12/13 01:26:26;;;;;;;989.28;930.78;;;;;;;5.16;73.58;101885.47;684586;28;136063;-74
2021/12/13 01:26:49;;;;;;;939.45;884.60;;;;;;;5.20;73.33;101887.81;683980;28;137272;-74
2021/12/13 01:27:10;;;;;;;974.45;916.95;;;;;;;5.18;73.97;101892.41;685433;28;67609;-74
2021/12/13 01:27:36;;;;;;;996.47;937.67;;;;;;;5.14;74.15;101890.06;687145;28;20864;-74
2021/12/13 01:28:07;;;;;;;970.65;912.97;;;;;;;5.14;74.01;101882.03;683026;28;143315;-74
2021/12/13 01:28:32;;;;;;;965.28;907.58;;;;;;;5.13;74.20;101883.88;682805;28;138065;-74
2021/12/13 01:28:58;;;;;;;932.35;877.70;;;;;;;5.17;73.68;101887.16;683211;28;115297;-74
2021/12/13 01:29:22;;;;;;;912.70;858.97;;;;;;;5.15;73.94;101898.00;683324;28;125187;-74
2021/12/13 01:29:52;;;;;;;896.85;844.75;;;;;;;5.15;74.24;101899.84;686207;28;116031;-74
2021/12/13 01:30:19;;;;;;;906.80;853.35;;;;;;;5.12;74.41;101890.19;684708;28;160660;-75
2021/12/13 01:30:46;;;;;;;945.85;890.03;;;;;;;5.16;73.96;101898.88;688869;28;116078;-74
2021/12/13 01:31:12;;;;;;;941.40;886.42;;;;;;;5.13;74.07;101883.03;687027;28;136351;-74
2021/12/13 01:31:38;;;;;;;975.33;917.90;;;;;;;5.10;74.43;101892.13;686931;28;136199;-74
2021/12/13 01:32:02;;;;;;;978.20;920.35;;;;;;;5.11;74.37;101892.97;685203;28;88251;-74
2021/12/13 01:32:26;;;;;;;941.60;885.93;;;;;;;5.03;74.46;101881.03;683226;28;74443;-74
2021/12/13 01:32:51;;;;;;;918.40;864.00;;;;;;;5.15;74.06;101895.31;681679;28;92769;-74
2021/12/13 01:33:15;;;;;;;913.53;859.53;;;;;;;5.04;74.48;101872.00;683017;28;92240;-74
2021/12/13 01:33:40;;;;;;;915.55;861.70;;;;;;;5.09;74.58;101885.06;681736;28;39703;-75
2021/12/13 01:34:04;;;;;;;946.13;890.53;;;;;;;5.10;74.32;101889.44;682401;28;92102;-74
2021/12/13 01:34:27;;;;;;;944.30;888.75;;;;;;;5.16;73.96;101898.88;685626;28;115109;-74
2021/12/13 01:34:49;;;;;;;909.00;856.17;;;;;;;5.14;74.31;101892.75;683469;28;67323;-74
2021/12/13 01:35:17;;;;;;;873.83;822.88;;;;;;;5.15;73.94;101889.13;684431;28;45221;-73
2021/12/13 01:35:40;;;;;;;906.22;853.22;;;;;;;5.17;74.21;101901.44;683458;28;137808;-72
2021/12/13 01:36:05;;;;;;;906.95;853.67;;;;;;;5.12;74.48;101895.53;685400;28;67465;-72
2021/12/13 01:36:32;;;;;;;902.75;850.13;;;;;;;5.14;74.42;101900.78;685972;28;113629;-74
2021/12/13 01:37:03;;;;;;;918.92;864.88;;;;;;;5.14;74.40;101896.31;683107;28;160875;-72
2021/12/13 01:37:30;;;;;;;941.70;886.00;;;;;;;5.12;74.59;101898.22;687965;28;58016;-73
2021/12/13 01:37:53;;;;;;;998.55;939.38;;;;;;;5.13;74.56;101896.41;683859;28;137858;-74
2021/12/13 01:38:17;;;;;;;1009.65;949.80;;;;;;;5.13;74.62;101901.78;686612;28;92428;-74
2021/12/13 01:38:45;;;;;;;1045.28;983.20;;;;;;;5.14;74.56;101901.66;687023;28;90305;-74
2021/12/13 01:39:10;;;;;;;998.40;939.22;;;;;;;5.15;74.53;101899.84;684243;28;160537;-74
2021/12/13 01:39:34;;;;;;;1008.70;948.75;;;;;;;5.12;74.62;101898.22;683218;28;115016;-74
2021/12/13 01:39:56;;;;;;;1051.10;988.38;;;;;;;5.13;74.78;101899.09;683502;28;114736;-74
2021/12/13 01:40:23;;;;;;;1029.40;968.22;;;;;;;5.15;74.46;101897.16;685996;28;46374;-74
2021/12/13 01:40:50;;;;;;;981.63;923.40;;;;;;;5.15;74.51;101907.88;681151;28;96350;-74
2021/12/13 01:41:16;;;;;;;979.90;921.97;;;;;;;5.14;74.68;101904.34;680104;28;138267;-74
2021/12/13 01:41:47;;;;;;;954.58;898.20;;;;;;;5.13;74.27;101899.09;679821;28;136946;-74
2021/12/13 01:42:20;;;;;;;876.25;824.63;;;;;;;5.07;74.45;101889.69;677050;29;134458;-74
2021/12/13 01:42:41;;;;;;;886.88;834.10;;;;;;;5.12;74.51;101895.53;680007;28;124986;-74
2021/12/13 01:43:06;;;;;;;913.65;859.83;;;;;;;5.16;74.48;101901.56;687815;28;19999;-74
2021/12/13 01:43:31;;;;;;;900.60;847.63;;;;;;;5.16;74.35;101902.41;686032;28;115887;-75
2021/12/13 01:43:55;;;;;;;925.22;871.10;;;;;;;5.12;74.37;101892.88;686142;28;113562;-74
2021/12/13 01:44:18;;;;;;;974.47;916.83;;;;;;;5.15;74.06;101906.03;687578;28;70225;-74
2021/12/13 01:44:42;;;;;;;978.13;920.55;;;;;;;5.17;74.52;101901.44;687817;28;69435;-74
2021/12/13 01:45:07;;;;;;;975.22;917.70;;;;;;;5.19;74.28;101906.69;685309;28;92034;-74
2021/12/13 01:45:34;;;;;;;963.67;906.63;;;;;;;5.19;74.12;101904.00;683977;28;138536;-74
2021/12/13 01:45:56;;;;;;;892.25;840.08;;;;;;;5.18;74.12;101899.59;684018;28;137580;-74
2021/12/13 01:46:19;;;;;;;934.03;879.38;;;;;;;5.23;73.62;101900.09;688501;28;67509;-74
2021/12/13 01:46:44;;;;;;;1049.15;986.67;;;;;;;5.22;73.48;101901.09;689244;28;69280;-74
2021/12/13 01:47:09;;;;;;;1047.82;984.78;;;;;;;5.29;73.05;101901.50;687850;28;137768;-74
2021/12/13 01:47:36;;;;;;;1082.88;999.90;;;;;;;5.27;73.35;101901.59;689023;28;91911;-74
2021/12/13 01:47:57;;;;;;;1067.70;999.90;;;;;;;5.29;73.63;101905.00;685542;28;180400;-74
2021/12/13 01:48:24;;;;;;;1071.85;999.90;;;;;;;5.24;73.97;101894.63;688971;28;44396;-74
2021/12/13 01:48:46;;;;;;;1059.70;995.47;;;;;;;5.25;74.02;101895.50;684752;28;138187;-74
2021/12/13 01:49:08;;;;;;;1068.63;999.70;;;;;;;5.27;73.68;101898.91;688400;28;45245;-74
2021/12/13 01:49:32;;;;;;;1099.90;999.90;;;;;;;5.29;73.18;101899.66;688844;28;44314;-75
2021/12/13 01:49:58;;;;;;;1065.28;999.78;;;;;;;5.26;73.58;101901.72;686132;28;114924;-75
2021/12/13 01:50:24;;;;;;;1074.80;999.90;;;;;;;5.27;73.29;101898.91;685126;28;137905;-75
2021/12/13 01:51:04;;;;;;;1106.18;999.90;;;;;;;5.28;73.57;101903.28;685299;28;137857;-74
2021/12/13 01:51:27;;;;;;;1081.80;999.90;;;;;;;5.27;73.92;101901.59;685251;28;137701;-74
2021/12/13 01:51:49;;;;;;;1018.17;957.80;;;;;;;5.30;73.85;101904.06;687216;28;69412;-75
2021/12/13 01:52:15;;;;;;;1042.95;980.67;;;;;;;5.27;73.47;101893.56;688268;28;45229;-75
2021/12/13 01:52:38;;;;;;;1063.65;999.60;;;;;;;5.30;73.71;101904.06;682800;28;136205;-74
2021/12/13 01:53:00;;;;;;;1064.72;999.03;;;;;;;5.32;73.55;101901.25;684052;28;89164;-75
2021/12/13 01:53:35;;;;;;;1092.05;999.90;;;;;;;5.32;73.47;101898.59;688180;28;1414;-74
2021/12/13 01:53:59;;;;;;;1067.30;999.90;;;;;;;5.29;73.90;101902.34;684157;28;135672;-74
2021/12/13 01:54:22;;;;;;;1056.75;992.72;;;;;;;5.27;73.86;101898.09;685918;28;87608;-75
2021/12/13 01:54:48;;;;;;;1079.40;999.90;;;;;;;5.31;73.70;101899.53;692061;28;13833;-75
2021/12/13 01:55:16;;;;;;;1077.40;999.90;;;;;;;5.23;73.90;101890.28;687447;28;131315;-75
2021/12/13 01:55:45;;;;;;;1045.57;981.70;;;;;;;5.29;73.97;101902.34;684474;28;104998;-74
2021/12/13 01:56:23;;;;;;;1084.53;999.90;;;;;;;5.30;73.51;101901.38;683908;28;59533;-75
2021/12/13 01:56:55;;;;;;;1050.30;987.37;;;;;;;5.26;73.81;101891.00;679392;29;59938;-74
2021/12/13 01:57:25;;;;;;;1082.57;999.90;;;;;;;5.29;73.85;101901.50;676601;29;77777;-75
2021/12/13 01:57:49;;;;;;;1026.47;965.05;;;;;;;5.29;74.02;101896.97;673310;29;137873;-74
2021/12/13 01:58:37;;;;;;;1006.45;947.00;;;;;;;5.30;73.50;101892.47;678906;29;91776;-74
2021/12/13 01:59:04;;;;;;;975.75;918.50;;;;;;;5.32;73.37;101901.25;682120;28;137803;-74
2021/12/13 01:59:42;;;;;;;990.97;932.53;;;;;;;5.35;73.13;101893.00;682454;28;136331;-74
2021/12/13 02:00:08;;;;;;;1052.07;989.22;;;;;;;5.35;73.05;101907.22;683679;28;137458;-74
2021/12/13 02:01:08;;;;;;;1036.55;974.90;;;;;;;5.32;73.48;101896.75;685475;28;138274;-75
2021/12/13 02:01:24;;;;;;;950.53;894.28;;;;;;;5.35;73.65;101899.19;684401;28;158832;-75
2021/12/13 02:01:46;;;;;;;836.40;787.35;;;;;;;5.31;73.71;101894.19;688642;28;46697;-75
2021/12/13 02:02:16;;;;;;;938.38;883.28;;;;;;;5.32;73.70;101903.94;688840;28;44393;-74
2021/12/13 02:02:40;;;;;;;1076.53;999.90;;;;;;;5.33;73.64;101902.94;684037;28;159230;-75
2021/12/13 02:03:03;;;;;;;1083.32;999.90;;;;;;;5.33;73.84;101900.28;687155;28;92049;-75
2021/12/13 02:03:38;;;;;;;1104.97;999.90;;;;;;;5.33;73.55;101898.47;687404;28;69034;-74
2021/12/13 02:04:02;;;;;;;1047.28;983.17;;;;;;;5.32;73.98;101901.25;685803;28;135691;-73
2021/12/13 02:04:27;;;;;;;1102.22;999.90;;;;;;;5.21;73.95;101877.94;687030;28;92150;-73
2021/12/13 02:04:59;;;;;;;1083.60;999.90;;;;;;;5.30;74.52;101898.69;684837;28;83245;-74